sensor_id;sensor_type;location;lat;lon;timestamp;P1;durP1;ratioP1;P2;durP2;ratioP2
22007;SDS011;11168;56.976;24.168;2023-05-10T00:01:17;10.98;;;4.25;;
22007;SDS011;11168;56.976;24.168;2023-05-10T00:03:45;16.67;;;4.93;;
22007;SDS011;11168;56.976;24.168;2023-05-10T00:06:12;12.80;;;4.75;;
22007;SDS011;11168;56.976;24.168;2023-05-10T00:08:39;10.40;;;4.55;;
22007;SDS011;11168;56.976;24.168;2023-05-10T00:11:07;13.32;;;4.50;;
22007;SDS011;11168;56.976;24.168;2023-05-10T00:13:34;11.73;;;4.60;;
22007;SDS011;11168;56.976;24.168;2023-05-10T00:16:01;12.60;;;4.82;;
22007;SDS011;11168;56.976;24.168;2023-05-10T00:18:29;12.00;;;5.10;;
22007;SDS011;11168;56.976;24.168;2023-05-10T00:20:56;11.45;;;4.60;;
22007;SDS011;11168;56.976;24.168;2023-05-10T00:23:23;13.55;;;4.82;;
22007;SDS011;11168;56.976;24.168;2023-05-10T00:25:51;11.07;;;4.55;;
22007;SDS011;11168;56.976;24.168;2023-05-10T00:28:18;20.35;;;5.22;;
22007;SDS011;11168;56.976;24.168;2023-05-10T00:30:45;12.00;;;4.80;;
22007;SDS011;11168;56.976;24.168;2023-05-10T00:33:13;8.95;;;5.13;;
22007;SDS011;11168;56.976;24.168;2023-05-10T00:35:40;12.50;;;4.93;;
22007;SDS011;11168;56.976;24.168;2023-05-10T00:38:07;13.40;;;4.93;;
22007;SDS011;11168;56.976;24.168;2023-05-10T00:40:35;15.63;;;5.22;;
22007;SDS011;11168;56.976;24.168;2023-05-10T00:43:03;15.15;;;5.55;;
22007;SDS011;11168;56.976;24.168;2023-05-10T00:45:31;15.38;;;5.47;;
22007;SDS011;11168;56.976;24.168;2023-05-10T00:48:00;15.05;;;5.43;;
22007;SDS011;11168;56.976;24.168;2023-05-10T00:50:30;20.37;;;5.80;;
22007;SDS011;11168;56.976;24.168;2023-05-10T00:53:01;21.58;;;5.82;;
22007;SDS011;11168;56.976;24.168;2023-05-10T00:55:29;20.25;;;7.75;;
22007;SDS011;11168;56.976;24.168;2023-05-10T00:57:57;15.07;;;6.30;;
22007;SDS011;11168;56.976;24.168;2023-05-10T01:00:26;11.88;;;5.32;;
22007;SDS011;11168;56.976;24.168;2023-05-10T01:02:53;12.55;;;5.30;;
22007;SDS011;11168;56.976;24.168;2023-05-10T01:05:21;16.27;;;5.68;;
22007;SDS011;11168;56.976;24.168;2023-05-10T01:07:52;11.88;;;5.70;;
22007;SDS011;11168;56.976;24.168;2023-05-10T01:10:19;16.50;;;6.70;;
22007;SDS011;11168;56.976;24.168;2023-05-10T01:12:46;13.70;;;5.38;;
22007;SDS011;11168;56.976;24.168;2023-05-10T01:15:14;12.68;;;5.30;;
22007;SDS011;11168;56.976;24.168;2023-05-10T01:17:43;15.13;;;6.00;;
22007;SDS011;11168;56.976;24.168;2023-05-10T01:20:11;8.68;;;5.78;;
22007;SDS011;11168;56.976;24.168;2023-05-10T01:39:20;15.50;;;5.47;;
22007;SDS011;11168;56.976;24.168;2023-05-10T01:41:33;18.43;;;6.37;;
22007;SDS011;11168;56.976;24.168;2023-05-10T01:46:56;14.60;;;5.72;;
22007;SDS011;11168;56.976;24.168;2023-05-10T01:49:26;13.60;;;5.68;;
22007;SDS011;11168;56.976;24.168;2023-05-10T01:51:54;9.07;;;5.70;;
22007;SDS011;11168;56.976;24.168;2023-05-10T01:54:24;11.15;;;5.63;;
22007;SDS011;11168;56.976;24.168;2023-05-10T01:56:55;10.90;;;5.28;;
22007;SDS011;11168;56.976;24.168;2023-05-10T01:59:28;13.00;;;5.10;;
22007;SDS011;11168;56.976;24.168;2023-05-10T02:01:57;14.43;;;5.47;;
22007;SDS011;11168;56.976;24.168;2023-05-10T02:04:26;10.13;;;5.65;;
22007;SDS011;11168;56.976;24.168;2023-05-10T02:06:54;11.90;;;5.57;;
22007;SDS011;11168;56.976;24.168;2023-05-10T02:09:22;13.27;;;5.28;;
22007;SDS011;11168;56.976;24.168;2023-05-10T02:11:50;10.52;;;5.63;;
22007;SDS011;11168;56.976;24.168;2023-05-10T02:14:18;12.63;;;5.82;;
22007;SDS011;11168;56.976;24.168;2023-05-10T02:16:46;13.60;;;6.00;;
22007;SDS011;11168;56.976;24.168;2023-05-10T02:19:14;16.92;;;5.80;;
22007;SDS011;11168;56.976;24.168;2023-05-10T02:21:42;15.93;;;5.55;;
22007;SDS011;11168;56.976;24.168;2023-05-10T02:24:10;12.65;;;6.13;;
22007;SDS011;11168;56.976;24.168;2023-05-10T02:26:38;17.80;;;6.57;;
22007;SDS011;11168;56.976;24.168;2023-05-10T02:29:05;13.80;;;5.88;;
22007;SDS011;11168;56.976;24.168;2023-05-10T02:31:33;17.23;;;6.50;;
22007;SDS011;11168;56.976;24.168;2023-05-10T02:34:02;12.13;;;6.28;;
22007;SDS011;11168;56.976;24.168;2023-05-10T02:36:29;14.02;;;6.20;;
22007;SDS011;11168;56.976;24.168;2023-05-10T02:38:57;22.05;;;6.28;;
22007;SDS011;11168;56.976;24.168;2023-05-10T02:41:25;27.30;;;6.78;;
22007;SDS011;11168;56.976;24.168;2023-05-10T02:43:55;25.60;;;6.57;;
22007;SDS011;11168;56.976;24.168;2023-05-10T02:46:23;21.40;;;6.45;;
22007;SDS011;11168;56.976;24.168;2023-05-10T02:48:51;14.55;;;6.85;;
22007;SDS011;11168;56.976;24.168;2023-05-10T02:51:18;19.92;;;6.47;;
22007;SDS011;11168;56.976;24.168;2023-05-10T02:53:46;12.93;;;6.65;;
22007;SDS011;11168;56.976;24.168;2023-05-10T02:56:22;22.73;;;6.60;;
22007;SDS011;11168;56.976;24.168;2023-05-10T02:58:51;14.85;;;6.85;;
22007;SDS011;11168;56.976;24.168;2023-05-10T03:01:19;13.20;;;6.82;;
22007;SDS011;11168;56.976;24.168;2023-05-10T03:03:46;21.38;;;6.47;;
22007;SDS011;11168;56.976;24.168;2023-05-10T03:06:13;22.17;;;7.15;;
22007;SDS011;11168;56.976;24.168;2023-05-10T03:08:43;17.98;;;7.15;;
22007;SDS011;11168;56.976;24.168;2023-05-10T03:16:32;22.98;;;10.95;;
22007;SDS011;11168;56.976;24.168;2023-05-10T03:19:01;37.55;;;15.77;;
22007;SDS011;11168;56.976;24.168;2023-05-10T03:21:31;14.00;;;6.07;;
22007;SDS011;11168;56.976;24.168;2023-05-10T03:24:01;14.40;;;6.05;;
22007;SDS011;11168;56.976;24.168;2023-05-10T03:26:30;13.68;;;5.60;;
22007;SDS011;11168;56.976;24.168;2023-05-10T03:28:57;18.33;;;5.68;;
22007;SDS011;11168;56.976;24.168;2023-05-10T03:31:25;15.80;;;5.70;;
22007;SDS011;11168;56.976;24.168;2023-05-10T03:33:52;17.80;;;6.20;;
22007;SDS011;11168;56.976;24.168;2023-05-10T03:36:20;15.60;;;6.05;;
22007;SDS011;11168;56.976;24.168;2023-05-10T03:38:47;14.25;;;5.57;;
22007;SDS011;11168;56.976;24.168;2023-05-10T03:41:14;13.98;;;5.70;;
22007;SDS011;11168;56.976;24.168;2023-05-10T03:43:42;17.60;;;5.85;;
22007;SDS011;11168;56.976;24.168;2023-05-10T03:46:09;18.73;;;5.85;;
22007;SDS011;11168;56.976;24.168;2023-05-10T03:48:36;16.10;;;6.40;;
22007;SDS011;11168;56.976;24.168;2023-05-10T03:51:04;15.55;;;6.35;;
22007;SDS011;11168;56.976;24.168;2023-05-10T03:53:31;16.17;;;5.68;;
22007;SDS011;11168;56.976;24.168;2023-05-10T03:55:58;17.80;;;5.93;;
22007;SDS011;11168;56.976;24.168;2023-05-10T03:58:26;13.15;;;6.32;;
22007;SDS011;11168;56.976;24.168;2023-05-10T04:00:53;27.40;;;6.47;;
22007;SDS011;11168;56.976;24.168;2023-05-10T04:03:21;18.73;;;6.10;;
22007;SDS011;11168;56.976;24.168;2023-05-10T04:05:49;21.17;;;5.85;;
22007;SDS011;11168;56.976;24.168;2023-05-10T04:08:25;21.02;;;6.32;;
22007;SDS011;11168;56.976;24.168;2023-05-10T04:10:52;19.25;;;5.47;;
22007;SDS011;11168;56.976;24.168;2023-05-10T04:13:19;11.35;;;6.00;;
22007;SDS011;11168;56.976;24.168;2023-05-10T04:15:47;16.83;;;6.10;;
22007;SDS011;11168;56.976;24.168;2023-05-10T04:18:14;16.52;;;5.63;;
22007;SDS011;11168;56.976;24.168;2023-05-10T04:20:43;17.02;;;6.00;;
22007;SDS011;11168;56.976;24.168;2023-05-10T04:23:10;26.55;;;6.13;;
22007;SDS011;11168;56.976;24.168;2023-05-10T04:25:37;14.30;;;5.57;;
22007;SDS011;11168;56.976;24.168;2023-05-10T04:28:05;16.88;;;5.10;;
22007;SDS011;11168;56.976;24.168;2023-05-10T04:30:32;14.75;;;5.65;;
22007;SDS011;11168;56.976;24.168;2023-05-10T04:33:00;16.42;;;5.47;;
22007;SDS011;11168;56.976;24.168;2023-05-10T04:35:28;14.98;;;5.22;;
22007;SDS011;11168;56.976;24.168;2023-05-10T04:37:55;18.08;;;5.07;;
22007;SDS011;11168;56.976;24.168;2023-05-10T04:40:22;13.23;;;5.65;;
22007;SDS011;11168;56.976;24.168;2023-05-10T04:42:50;14.48;;;5.07;;
22007;SDS011;11168;56.976;24.168;2023-05-10T04:45:17;11.00;;;5.07;;
22007;SDS011;11168;56.976;24.168;2023-05-10T04:47:45;10.95;;;5.25;;
22007;SDS011;11168;56.976;24.168;2023-05-10T04:50:12;13.25;;;4.50;;
22007;SDS011;11168;56.976;24.168;2023-05-10T04:52:39;21.98;;;5.18;;
22007;SDS011;11168;56.976;24.168;2023-05-10T04:55:07;20.70;;;5.53;;
22007;SDS011;11168;56.976;24.168;2023-05-10T04:57:36;12.45;;;5.03;;
22007;SDS011;11168;56.976;24.168;2023-05-10T05:00:03;19.67;;;5.55;;
22007;SDS011;11168;56.976;24.168;2023-05-10T05:02:31;20.17;;;5.72;;
22007;SDS011;11168;56.976;24.168;2023-05-10T05:04:59;24.17;;;5.60;;
22007;SDS011;11168;56.976;24.168;2023-05-10T05:07:27;24.10;;;5.30;;
22007;SDS011;11168;56.976;24.168;2023-05-10T05:09:54;20.38;;;5.70;;
22007;SDS011;11168;56.976;24.168;2023-05-10T05:12:21;23.60;;;5.60;;
22007;SDS011;11168;56.976;24.168;2023-05-10T05:14:48;31.88;;;6.28;;
22007;SDS011;11168;56.976;24.168;2023-05-10T05:17:16;20.13;;;5.18;;
22007;SDS011;11168;56.976;24.168;2023-05-10T05:19:43;28.52;;;6.28;;
22007;SDS011;11168;56.976;24.168;2023-05-10T05:22:10;24.85;;;5.70;;
22007;SDS011;11168;56.976;24.168;2023-05-10T05:24:38;20.85;;;5.47;;
22007;SDS011;11168;56.976;24.168;2023-05-10T05:27:05;17.65;;;5.65;;
22007;SDS011;11168;56.976;24.168;2023-05-10T05:29:32;19.83;;;5.13;;
22007;SDS011;11168;56.976;24.168;2023-05-10T05:32:00;26.35;;;5.90;;
22007;SDS011;11168;56.976;24.168;2023-05-10T05:34:27;22.63;;;5.93;;
22007;SDS011;11168;56.976;24.168;2023-05-10T05:36:55;18.13;;;4.78;;
22007;SDS011;11168;56.976;24.168;2023-05-10T05:39:22;20.77;;;5.10;;
22007;SDS011;11168;56.976;24.168;2023-05-10T05:41:49;17.40;;;5.28;;
22007;SDS011;11168;56.976;24.168;2023-05-10T05:44:17;16.48;;;5.22;;
22007;SDS011;11168;56.976;24.168;2023-05-10T05:46:44;18.65;;;4.78;;
22007;SDS011;11168;56.976;24.168;2023-05-10T05:49:11;15.77;;;5.28;;
22007;SDS011;11168;56.976;24.168;2023-05-10T05:51:38;24.10;;;4.95;;
22007;SDS011;11168;56.976;24.168;2023-05-10T05:54:06;18.15;;;5.75;;
22007;SDS011;11168;56.976;24.168;2023-05-10T05:56:33;23.75;;;5.72;;
22007;SDS011;11168;56.976;24.168;2023-05-10T05:59:00;19.25;;;6.00;;
22007;SDS011;11168;56.976;24.168;2023-05-10T06:01:28;23.17;;;6.15;;
22007;SDS011;11168;56.976;24.168;2023-05-10T06:03:55;18.05;;;5.85;;
22007;SDS011;11168;56.976;24.168;2023-05-10T06:06:23;25.13;;;6.05;;
22007;SDS011;11168;56.976;24.168;2023-05-10T06:08:50;24.85;;;5.43;;
22007;SDS011;11168;56.976;24.168;2023-05-10T06:11:20;15.82;;;4.75;;
22007;SDS011;11168;56.976;24.168;2023-05-10T06:13:49;16.85;;;5.65;;
22007;SDS011;11168;56.976;24.168;2023-05-10T06:16:17;24.45;;;5.28;;
22007;SDS011;11168;56.976;24.168;2023-05-10T06:18:44;17.40;;;4.72;;
22007;SDS011;11168;56.976;24.168;2023-05-10T06:21:11;18.33;;;4.82;;
22007;SDS011;11168;56.976;24.168;2023-05-10T06:23:39;11.43;;;4.80;;
22007;SDS011;11168;56.976;24.168;2023-05-10T06:26:07;23.77;;;4.72;;
22007;SDS011;11168;56.976;24.168;2023-05-10T06:28:35;21.20;;;4.78;;
22007;SDS011;11168;56.976;24.168;2023-05-10T06:31:04;13.20;;;4.50;;
22007;SDS011;11168;56.976;24.168;2023-05-10T06:33:32;21.98;;;5.47;;
22007;SDS011;11168;56.976;24.168;2023-05-10T06:36:00;14.35;;;4.78;;
22007;SDS011;11168;56.976;24.168;2023-05-10T06:38:28;17.40;;;5.28;;
22007;SDS011;11168;56.976;24.168;2023-05-10T06:40:55;12.27;;;4.80;;
22007;SDS011;11168;56.976;24.168;2023-05-10T06:43:23;21.05;;;5.18;;
22007;SDS011;11168;56.976;24.168;2023-05-10T06:45:52;15.80;;;4.68;;
22007;SDS011;11168;56.976;24.168;2023-05-10T06:48:19;11.98;;;4.05;;
22007;SDS011;11168;56.976;24.168;2023-05-10T06:50:47;9.80;;;4.30;;
22007;SDS011;11168;56.976;24.168;2023-05-10T06:53:15;20.42;;;5.13;;
22007;SDS011;11168;56.976;24.168;2023-05-10T06:55:42;15.38;;;4.53;;
22007;SDS011;11168;56.976;24.168;2023-05-10T06:58:10;11.85;;;3.80;;
22007;SDS011;11168;56.976;24.168;2023-05-10T07:00:37;16.63;;;4.63;;
22007;SDS011;11168;56.976;24.168;2023-05-10T07:03:07;14.20;;;4.25;;
22007;SDS011;11168;56.976;24.168;2023-05-10T07:05:35;12.20;;;4.03;;
22007;SDS011;11168;56.976;24.168;2023-05-10T07:08:02;9.75;;;4.13;;
22007;SDS011;11168;56.976;24.168;2023-05-10T07:10:30;7.63;;;3.63;;
22007;SDS011;11168;56.976;24.168;2023-05-10T07:12:57;7.43;;;4.10;;
22007;SDS011;11168;56.976;24.168;2023-05-10T07:15:25;9.80;;;3.90;;
22007;SDS011;11168;56.976;24.168;2023-05-10T07:17:52;8.23;;;3.88;;
22007;SDS011;11168;56.976;24.168;2023-05-10T07:20:20;7.88;;;3.40;;
22007;SDS011;11168;56.976;24.168;2023-05-10T07:22:47;7.75;;;3.67;;
22007;SDS011;11168;56.976;24.168;2023-05-10T07:25:14;7.53;;;3.78;;
22007;SDS011;11168;56.976;24.168;2023-05-10T07:27:42;10.65;;;4.45;;
22007;SDS011;11168;56.976;24.168;2023-05-10T07:30:09;8.35;;;4.00;;
22007;SDS011;11168;56.976;24.168;2023-05-10T07:32:37;9.63;;;3.50;;
22007;SDS011;11168;56.976;24.168;2023-05-10T07:35:05;8.93;;;3.67;;
22007;SDS011;11168;56.976;24.168;2023-05-10T07:37:33;6.43;;;3.38;;
22007;SDS011;11168;56.976;24.168;2023-05-10T07:40:01;16.08;;;3.70;;
22007;SDS011;11168;56.976;24.168;2023-05-10T07:42:28;7.15;;;3.33;;
22007;SDS011;11168;56.976;24.168;2023-05-10T07:44:55;5.32;;;3.33;;
22007;SDS011;11168;56.976;24.168;2023-05-10T07:47:23;8.88;;;3.67;;
22007;SDS011;11168;56.976;24.168;2023-05-10T07:49:50;10.40;;;3.65;;
22007;SDS011;11168;56.976;24.168;2023-05-10T07:52:17;7.82;;;3.83;;
22007;SDS011;11168;56.976;24.168;2023-05-10T07:54:49;11.57;;;3.93;;
22007;SDS011;11168;56.976;24.168;2023-05-10T07:57:17;5.97;;;3.60;;
22007;SDS011;11168;56.976;24.168;2023-05-10T07:59:44;12.43;;;3.38;;
22007;SDS011;11168;56.976;24.168;2023-05-10T08:02:12;7.25;;;3.00;;
22007;SDS011;11168;56.976;24.168;2023-05-10T08:04:39;5.75;;;3.25;;
22007;SDS011;11168;56.976;24.168;2023-05-10T08:07:06;5.55;;;2.95;;
22007;SDS011;11168;56.976;24.168;2023-05-10T08:09:34;8.70;;;3.53;;
22007;SDS011;11168;56.976;24.168;2023-05-10T08:12:01;8.15;;;3.20;;
22007;SDS011;11168;56.976;24.168;2023-05-10T08:14:29;7.30;;;3.10;;
22007;SDS011;11168;56.976;24.168;2023-05-10T08:16:56;7.55;;;3.55;;
22007;SDS011;11168;56.976;24.168;2023-05-10T08:19:23;7.40;;;3.25;;
22007;SDS011;11168;56.976;24.168;2023-05-10T08:21:51;7.32;;;3.60;;
22007;SDS011;11168;56.976;24.168;2023-05-10T08:24:19;6.15;;;3.35;;
22007;SDS011;11168;56.976;24.168;2023-05-10T08:26:47;11.15;;;3.40;;
22007;SDS011;11168;56.976;24.168;2023-05-10T08:29:14;9.10;;;3.97;;
22007;SDS011;11168;56.976;24.168;2023-05-10T08:31:42;9.70;;;3.33;;
22007;SDS011;11168;56.976;24.168;2023-05-10T08:34:10;9.23;;;3.40;;
22007;SDS011;11168;56.976;24.168;2023-05-10T08:36:37;6.78;;;3.13;;
22007;SDS011;11168;56.976;24.168;2023-05-10T08:39:04;5.22;;;3.42;;
22007;SDS011;11168;56.976;24.168;2023-05-10T08:41:44;6.28;;;3.17;;
22007;SDS011;11168;56.976;24.168;2023-05-10T08:44:13;10.57;;;3.40;;
22007;SDS011;11168;56.976;24.168;2023-05-10T08:46:42;7.70;;;4.07;;
22007;SDS011;11168;56.976;24.168;2023-05-10T08:49:13;6.53;;;3.00;;
22007;SDS011;11168;56.976;24.168;2023-05-10T08:51:40;4.90;;;3.28;;
22007;SDS011;11168;56.976;24.168;2023-05-10T08:54:11;6.65;;;3.22;;
22007;SDS011;11168;56.976;24.168;2023-05-10T08:56:41;6.70;;;3.50;;
22007;SDS011;11168;56.976;24.168;2023-05-10T08:59:08;6.70;;;3.20;;
22007;SDS011;11168;56.976;24.168;2023-05-10T09:01:35;5.70;;;3.20;;
22007;SDS011;11168;56.976;24.168;2023-05-10T09:04:03;8.85;;;3.35;;
22007;SDS011;11168;56.976;24.168;2023-05-10T09:06:31;7.35;;;3.72;;
22007;SDS011;11168;56.976;24.168;2023-05-10T09:08:58;4.85;;;3.40;;
22007;SDS011;11168;56.976;24.168;2023-05-10T09:11:26;4.63;;;3.42;;
22007;SDS011;11168;56.976;24.168;2023-05-10T09:13:55;6.03;;;3.30;;
22007;SDS011;11168;56.976;24.168;2023-05-10T09:16:23;7.38;;;3.40;;
22007;SDS011;11168;56.976;24.168;2023-05-10T09:18:50;7.10;;;3.45;;
22007;SDS011;11168;56.976;24.168;2023-05-10T09:21:19;5.28;;;3.00;;
22007;SDS011;11168;56.976;24.168;2023-05-10T09:23:47;6.22;;;3.00;;
22007;SDS011;11168;56.976;24.168;2023-05-10T09:26:16;13.07;;;3.65;;
22007;SDS011;11168;56.976;24.168;2023-05-10T09:28:54;8.25;;;3.40;;
22007;SDS011;11168;56.976;24.168;2023-05-10T09:31:22;6.95;;;3.15;;
22007;SDS011;11168;56.976;24.168;2023-05-10T09:33:51;4.55;;;3.05;;
22007;SDS011;11168;56.976;24.168;2023-05-10T09:36:20;6.85;;;3.20;;
22007;SDS011;11168;56.976;24.168;2023-05-10T09:38:48;5.30;;;2.97;;
22007;SDS011;11168;56.976;24.168;2023-05-10T09:41:19;5.85;;;3.15;;
22007;SDS011;11168;56.976;24.168;2023-05-10T09:43:47;6.65;;;3.33;;
22007;SDS011;11168;56.976;24.168;2023-05-10T09:46:14;5.05;;;3.30;;
22007;SDS011;11168;56.976;24.168;2023-05-10T09:48:43;5.88;;;3.15;;
22007;SDS011;11168;56.976;24.168;2023-05-10T09:51:10;5.97;;;3.53;;
22007;SDS011;11168;56.976;24.168;2023-05-10T09:53:37;4.95;;;2.88;;
22007;SDS011;11168;56.976;24.168;2023-05-10T09:56:05;7.40;;;3.28;;
22007;SDS011;11168;56.976;24.168;2023-05-10T09:58:34;9.02;;;3.40;;
22007;SDS011;11168;56.976;24.168;2023-05-10T10:01:04;9.27;;;3.85;;
22007;SDS011;11168;56.976;24.168;2023-05-10T10:03:31;6.32;;;3.20;;
22007;SDS011;11168;56.976;24.168;2023-05-10T10:05:59;8.15;;;3.40;;
22007;SDS011;11168;56.976;24.168;2023-05-10T10:08:27;9.90;;;3.50;;
22007;SDS011;11168;56.976;24.168;2023-05-10T10:10:54;8.30;;;3.40;;
22007;SDS011;11168;56.976;24.168;2023-05-10T10:13:22;6.80;;;3.40;;
22007;SDS011;11168;56.976;24.168;2023-05-10T10:15:49;5.80;;;3.17;;
22007;SDS011;11168;56.976;24.168;2023-05-10T10:18:17;6.38;;;3.35;;
22007;SDS011;11168;56.976;24.168;2023-05-10T10:20:49;10.35;;;3.47;;
22007;SDS011;11168;56.976;24.168;2023-05-10T10:23:17;6.47;;;3.20;;
22007;SDS011;11168;56.976;24.168;2023-05-10T10:25:44;7.50;;;3.33;;
22007;SDS011;11168;56.976;24.168;2023-05-10T10:28:23;12.45;;;3.47;;
22007;SDS011;11168;56.976;24.168;2023-05-10T10:30:53;8.18;;;3.85;;
22007;SDS011;11168;56.976;24.168;2023-05-10T10:36:28;6.88;;;3.40;;
22007;SDS011;11168;56.976;24.168;2023-05-10T10:38:59;5.43;;;3.50;;
22007;SDS011;11168;56.976;24.168;2023-05-10T10:49:26;6.20;;;3.20;;
22007;SDS011;11168;56.976;24.168;2023-05-10T10:54:40;8.02;;;3.40;;
22007;SDS011;11168;56.976;24.168;2023-05-10T10:57:11;5.28;;;3.15;;
22007;SDS011;11168;56.976;24.168;2023-05-10T10:59:42;6.88;;;3.58;;
22007;SDS011;11168;56.976;24.168;2023-05-10T11:02:10;7.78;;;3.33;;
22007;SDS011;11168;56.976;24.168;2023-05-10T11:04:57;8.10;;;3.33;;
22007;SDS011;11168;56.976;24.168;2023-05-10T11:07:25;8.25;;;3.50;;
22007;SDS011;11168;56.976;24.168;2023-05-10T11:09:53;6.70;;;3.30;;
22007;SDS011;11168;56.976;24.168;2023-05-10T11:12:21;7.30;;;3.08;;
22007;SDS011;11168;56.976;24.168;2023-05-10T11:14:49;6.68;;;2.97;;
22007;SDS011;11168;56.976;24.168;2023-05-10T11:17:24;10.93;;;3.05;;
22007;SDS011;11168;56.976;24.168;2023-05-10T11:20:10;13.38;;;3.72;;
22007;SDS011;11168;56.976;24.168;2023-05-10T11:22:50;12.30;;;3.40;;
22007;SDS011;11168;56.976;24.168;2023-05-10T11:25:18;9.75;;;3.63;;
22007;SDS011;11168;56.976;24.168;2023-05-10T11:27:47;7.85;;;2.88;;
22007;SDS011;11168;56.976;24.168;2023-05-10T11:30:15;6.88;;;3.00;;
22007;SDS011;11168;56.976;24.168;2023-05-10T11:32:43;8.48;;;3.00;;
22007;SDS011;11168;56.976;24.168;2023-05-10T11:35:11;7.32;;;2.70;;
22007;SDS011;11168;56.976;24.168;2023-05-10T11:37:38;6.88;;;2.85;;
22007;SDS011;11168;56.976;24.168;2023-05-10T11:42:37;6.32;;;3.28;;
22007;SDS011;11168;56.976;24.168;2023-05-10T11:45:05;8.45;;;3.30;;
22007;SDS011;11168;56.976;24.168;2023-05-10T11:47:33;12.05;;;3.22;;
22007;SDS011;11168;56.976;24.168;2023-05-10T11:50:02;5.63;;;2.63;;
22007;SDS011;11168;56.976;24.168;2023-05-10T11:52:35;6.35;;;3.70;;
22007;SDS011;11168;56.976;24.168;2023-05-10T11:55:03;8.30;;;3.00;;
22007;SDS011;11168;56.976;24.168;2023-05-10T11:57:31;7.63;;;2.63;;
22007;SDS011;11168;56.976;24.168;2023-05-10T11:59:58;5.15;;;2.72;;
22007;SDS011;11168;56.976;24.168;2023-05-10T12:02:26;5.05;;;3.22;;
22007;SDS011;11168;56.976;24.168;2023-05-10T12:04:54;11.95;;;3.20;;
22007;SDS011;11168;56.976;24.168;2023-05-10T12:07:22;7.40;;;2.83;;
22007;SDS011;11168;56.976;24.168;2023-05-10T12:10:02;11.13;;;3.50;;
22007;SDS011;11168;56.976;24.168;2023-05-10T12:12:39;6.10;;;3.30;;
22007;SDS011;11168;56.976;24.168;2023-05-10T12:15:12;6.47;;;3.05;;
22007;SDS011;11168;56.976;24.168;2023-05-10T12:17:44;6.95;;;3.00;;
22007;SDS011;11168;56.976;24.168;2023-05-10T12:20:15;5.28;;;2.88;;
22007;SDS011;11168;56.976;24.168;2023-05-10T12:22:45;9.15;;;2.90;;
22007;SDS011;11168;56.976;24.168;2023-05-10T12:25:13;8.55;;;3.13;;
22007;SDS011;11168;56.976;24.168;2023-05-10T12:27:41;6.60;;;2.85;;
22007;SDS011;11168;56.976;24.168;2023-05-10T12:30:08;13.32;;;3.17;;
22007;SDS011;11168;56.976;24.168;2023-05-10T12:32:43;7.95;;;3.20;;
22007;SDS011;11168;56.976;24.168;2023-05-10T12:35:10;4.63;;;2.85;;
22007;SDS011;11168;56.976;24.168;2023-05-10T12:37:38;7.15;;;3.00;;
22007;SDS011;11168;56.976;24.168;2023-05-10T12:40:08;8.82;;;3.15;;
22007;SDS011;11168;56.976;24.168;2023-05-10T12:42:37;5.50;;;3.08;;
22007;SDS011;11168;56.976;24.168;2023-05-10T12:45:05;14.70;;;3.40;;
22007;SDS011;11168;56.976;24.168;2023-05-10T12:47:32;6.93;;;3.15;;
22007;SDS011;11168;56.976;24.168;2023-05-10T12:50:00;8.23;;;3.50;;
22007;SDS011;11168;56.976;24.168;2023-05-10T12:52:28;6.60;;;2.88;;
22007;SDS011;11168;56.976;24.168;2023-05-10T12:54:56;8.98;;;3.00;;
22007;SDS011;11168;56.976;24.168;2023-05-10T12:57:23;6.70;;;2.97;;
22007;SDS011;11168;56.976;24.168;2023-05-10T12:59:50;8.30;;;2.70;;
22007;SDS011;11168;56.976;24.168;2023-05-10T13:02:18;6.05;;;2.90;;
22007;SDS011;11168;56.976;24.168;2023-05-10T13:04:47;5.63;;;2.97;;
22007;SDS011;11168;56.976;24.168;2023-05-10T13:07:16;8.10;;;3.45;;
22007;SDS011;11168;56.976;24.168;2023-05-10T13:09:43;7.47;;;2.90;;
22007;SDS011;11168;56.976;24.168;2023-05-10T13:12:10;8.25;;;3.40;;
22007;SDS011;11168;56.976;24.168;2023-05-10T13:14:38;5.82;;;3.22;;
22007;SDS011;11168;56.976;24.168;2023-05-10T13:17:07;9.43;;;3.60;;
22007;SDS011;11168;56.976;24.168;2023-05-10T13:19:35;4.47;;;3.20;;
22007;SDS011;11168;56.976;24.168;2023-05-10T13:22:02;9.57;;;3.28;;
22007;SDS011;11168;56.976;24.168;2023-05-10T13:24:30;9.55;;;3.42;;
22007;SDS011;11168;56.976;24.168;2023-05-10T13:26:57;5.03;;;2.95;;
22007;SDS011;11168;56.976;24.168;2023-05-10T13:29:24;6.18;;;2.83;;
22007;SDS011;11168;56.976;24.168;2023-05-10T13:31:52;5.55;;;2.92;;
22007;SDS011;11168;56.976;24.168;2023-05-10T13:34:20;12.05;;;3.30;;
22007;SDS011;11168;56.976;24.168;2023-05-10T13:36:47;9.38;;;3.70;;
22007;SDS011;11168;56.976;24.168;2023-05-10T13:39:15;7.95;;;3.05;;
22007;SDS011;11168;56.976;24.168;2023-05-10T13:41:43;7.88;;;3.05;;
22007;SDS011;11168;56.976;24.168;2023-05-10T13:44:14;5.45;;;3.42;;
22007;SDS011;11168;56.976;24.168;2023-05-10T13:46:42;4.85;;;3.00;;
22007;SDS011;11168;56.976;24.168;2023-05-10T13:49:09;5.75;;;3.00;;
22007;SDS011;11168;56.976;24.168;2023-05-10T13:51:37;6.38;;;3.00;;
22007;SDS011;11168;56.976;24.168;2023-05-10T13:54:04;5.95;;;3.17;;
22007;SDS011;11168;56.976;24.168;2023-05-10T13:56:32;5.80;;;3.05;;
22007;SDS011;11168;56.976;24.168;2023-05-10T13:58:59;7.95;;;3.08;;
22007;SDS011;11168;56.976;24.168;2023-05-10T14:01:28;12.88;;;3.47;;
22007;SDS011;11168;56.976;24.168;2023-05-10T14:03:56;9.38;;;2.60;;
22007;SDS011;11168;56.976;24.168;2023-05-10T14:06:23;6.70;;;3.50;;
22007;SDS011;11168;56.976;24.168;2023-05-10T14:08:51;6.50;;;3.42;;
22007;SDS011;11168;56.976;24.168;2023-05-10T14:11:20;9.75;;;2.95;;
22007;SDS011;11168;56.976;24.168;2023-05-10T14:13:49;5.03;;;3.30;;
22007;SDS011;11168;56.976;24.168;2023-05-10T14:16:17;9.55;;;3.08;;
22007;SDS011;11168;56.976;24.168;2023-05-10T14:18:46;6.78;;;3.35;;
22007;SDS011;11168;56.976;24.168;2023-05-10T14:21:13;6.10;;;3.05;;
22007;SDS011;11168;56.976;24.168;2023-05-10T14:23:41;4.75;;;3.17;;
22007;SDS011;11168;56.976;24.168;2023-05-10T14:26:09;9.57;;;3.22;;
22007;SDS011;11168;56.976;24.168;2023-05-10T14:28:37;8.65;;;3.33;;
22007;SDS011;11168;56.976;24.168;2023-05-10T14:31:04;18.55;;;3.75;;
22007;SDS011;11168;56.976;24.168;2023-05-10T14:33:32;13.23;;;3.25;;
22007;SDS011;11168;56.976;24.168;2023-05-10T14:35:59;7.40;;;3.30;;
22007;SDS011;11168;56.976;24.168;2023-05-10T14:38:26;15.25;;;3.67;;
22007;SDS011;11168;56.976;24.168;2023-05-10T14:40:54;5.60;;;3.00;;
22007;SDS011;11168;56.976;24.168;2023-05-10T14:43:21;10.70;;;3.22;;
22007;SDS011;11168;56.976;24.168;2023-05-10T14:45:49;9.50;;;3.42;;
22007;SDS011;11168;56.976;24.168;2023-05-10T14:48:18;10.35;;;3.33;;
22007;SDS011;11168;56.976;24.168;2023-05-10T14:50:45;13.65;;;3.72;;
22007;SDS011;11168;56.976;24.168;2023-05-10T14:53:13;12.00;;;3.38;;
22007;SDS011;11168;56.976;24.168;2023-05-10T14:55:40;5.00;;;2.95;;
22007;SDS011;11168;56.976;24.168;2023-05-10T14:58:08;5.90;;;3.08;;
22007;SDS011;11168;56.976;24.168;2023-05-10T15:00:35;7.32;;;3.28;;
22007;SDS011;11168;56.976;24.168;2023-05-10T15:03:03;5.72;;;3.20;;
22007;SDS011;11168;56.976;24.168;2023-05-10T15:05:31;8.52;;;3.55;;
22007;SDS011;11168;56.976;24.168;2023-05-10T15:07:58;7.05;;;3.22;;
22007;SDS011;11168;56.976;24.168;2023-05-10T15:10:26;13.82;;;3.78;;
22007;SDS011;11168;56.976;24.168;2023-05-10T15:12:53;9.30;;;3.85;;
22007;SDS011;11168;56.976;24.168;2023-05-10T15:15:20;11.02;;;3.53;;